Mt Pleasant Rgnl-Faison Field Information

FAA: LRO - ICAO: KLRO

Mt Pleasant Rgnl-Faison Field (Airport) Location

State South Carolina
County Charleston
City Mount Pleasant
Mt Pleasant Rgnl-Faison Field (Airport) is 9 miles northeast of Mount Pleasant, SC.
Latitude 32-53-52.2000N
Longitude 079-46-58.3000W
Elevation 11ft

Mt Pleasant Rgnl-Faison Field METARs

METAR KLRO 261055Z AUTO 00000KT 8SM BKN012 BKN023 OVC043 24/24 A3017 RMK AO2
Altimeter 30.17"
Temperature 24.0°C (75.2°F)
Wind 0° at 0KT
Clouds broken at 1,200ft broken at 2,300ft overcast at 4,300ft
Visibility 8.0mi
Time observed: 2022-05-26T10:55:00Z

Mt Pleasant Rgnl-Faison Field (Airport) Details

Status Operational
Activation July 1986
Ownership Public
Usage Public
Chart CHARLOTTE
ATC on-site No
Beacon schedule sunset-sunrise
Beacon color clear green

Mt Pleasant Rgnl-Faison Field (Airport) Contacts

Owner CHARLESTON CO AVIATION AUTHORITY
Owner address 5500 INTERNATIONAL BLVD, #101, CHARLESTON, SC 29418-6911
Owner phone 843-767-7000
Manager ED LEE
Manager address 2945 AERO LANE, LANCASTER, SC 29720
Manager phone (803) 804-9191

Mt Pleasant Rgnl-Faison Field Radio Frequencies

Mt Pleasant Rgnl-Faison Field (Airport) Radio Frequencies

UNICOM 122.7
Common traffic advisory frequency (CTAF) 122.7